createdAt,value
2022-12-07T00:04:29.048Z,100667.06
2022-12-07T00:09:32.452Z,100646.34
2022-12-07T00:14:35.997Z,100646.84
2022-12-07T00:19:40.853Z,100643.19
2022-12-07T00:24:44.242Z,100644.00
2022-12-07T00:29:47.638Z,100632.31
2022-12-07T00:34:52.602Z,100620.97
2022-12-07T00:39:56.102Z,100612.78
2022-12-07T00:44:59.611Z,100622.06
2022-12-07T00:50:05.039Z,100623.28
2022-12-07T00:55:09.444Z,100617.84
2022-12-07T01:00:13.304Z,100600.94
2022-12-07T01:05:18.268Z,100598.50
2022-12-07T01:10:21.756Z,100596.84
2022-12-07T01:15:25.498Z,100593.84
2022-12-07T01:20:30.444Z,100600.41
2022-12-07T01:25:33.992Z,100601.09
2022-12-07T01:30:37.451Z,100594.41
2022-12-07T01:35:42.247Z,100594.03
2022-12-07T01:40:45.749Z,100590.59
2022-12-07T01:45:49.209Z,100595.16
2022-12-07T01:50:55.574Z,100588.03
2022-12-07T01:55:59.972Z,100582.88
2022-12-07T02:01:03.434Z,100572.00
2022-12-07T02:06:09.190Z,100560.75
2022-12-07T02:11:12.948Z,100571.28
2022-12-07T02:16:24.540Z,100569.63
2022-12-07T02:21:34.321Z,100567.44
2022-12-07T02:27:17.203Z,100564.59
2022-12-07T02:32:27.149Z,100568.66
2022-12-07T02:37:37.117Z,100542.63
2022-12-07T02:42:43.081Z,100556.94
2022-12-07T02:47:49.426Z,100554.72
2022-12-07T02:52:53.101Z,100551.75
2022-12-07T02:58:10.520Z,100544.59
2022-12-07T03:03:16.528Z,100552.28
2022-12-07T03:08:24.984Z,100548.91
2022-12-07T03:13:32.811Z,100531.53
2022-12-07T03:18:49.210Z,100541.31
2022-12-07T03:23:56.040Z,100537.78
2022-12-07T03:29:13.122Z,100526.75
2022-12-07T03:34:20.910Z,100528.50
2022-12-07T03:39:27.615Z,100530.84
2022-12-07T03:44:31.249Z,100531.63
2022-12-07T03:49:42.048Z,100534.88
2022-12-07T03:54:51.853Z,100523.31
2022-12-07T03:59:56.622Z,100525.78
2022-12-07T04:05:01.451Z,100537.22
2022-12-07T04:10:05.653Z,100545.53
2022-12-07T04:15:10.295Z,100545.78
2022-12-07T04:20:15.409Z,100536.25
2022-12-07T04:25:19.066Z,100548.88
2022-12-07T04:30:22.593Z,100547.56
2022-12-07T04:35:27.377Z,100544.94
2022-12-07T04:40:30.783Z,100543.16
2022-12-07T04:45:34.205Z,100537.97
2022-12-07T04:50:44.508Z,100534.94
2022-12-07T04:55:49.596Z,100534.50
2022-12-07T05:00:56.348Z,100531.59
2022-12-07T05:06:01.326Z,100533.84
2022-12-07T05:11:05.893Z,100531.19
2022-12-07T05:16:09.376Z,100526.63
2022-12-07T05:21:14.308Z,100531.00
2022-12-07T05:26:17.937Z,100532.16
2022-12-07T05:31:21.727Z,100530.84
2022-12-07T05:36:29.459Z,100528.56
2022-12-07T05:41:50.616Z,100524.47
2022-12-07T05:46:54.154Z,100529.28
2022-12-07T05:52:00.147Z,100545.38
2022-12-07T05:57:03.580Z,100518.63
2022-12-07T06:02:08.678Z,100521.44
2022-12-07T06:07:15.738Z,100522.00
2022-12-07T06:12:39.367Z,100539.84
2022-12-07T06:17:42.820Z,100532.72
2022-12-07T06:22:47.924Z,100531.81
2022-12-07T06:27:51.379Z,100540.59
2022-12-07T06:32:54.916Z,100537.78
2022-12-07T06:37:59.853Z,100535.72
2022-12-07T06:43:03.280Z,100542.22
2022-12-07T06:48:07.091Z,100535.94
2022-12-07T06:53:12.043Z,100535.78
2022-12-07T06:58:15.604Z,100534.31
2022-12-07T07:03:19.095Z,100534.97
2022-12-07T07:08:24.288Z,100542.09
2022-12-07T07:13:28.674Z,100539.13
2022-12-07T07:18:32.129Z,100532.53
2022-12-07T07:23:44.070Z,100546.28
2022-12-07T07:28:50.215Z,100558.75
2022-12-07T07:33:53.596Z,100558.66
2022-12-07T07:38:58.634Z,100558.75
2022-12-07T07:44:02.029Z,100564.28
2022-12-07T07:49:05.460Z,100560.84
2022-12-07T07:54:10.184Z,100563.19
2022-12-07T07:59:13.569Z,100571.22
2022-12-07T08:04:17.122Z,100556.75
2022-12-07T08:09:22.011Z,100579.16
2022-12-07T08:14:26.670Z,100574.97
2022-12-07T08:19:30.055Z,100570.94
2022-12-07T08:24:36.781Z,100566.91
2022-12-07T08:29:41.305Z,100563.31
2022-12-07T08:34:45.503Z,100569.75
2022-12-07T08:39:50.378Z,100565.59
2022-12-07T08:44:53.799Z,100566.22
2022-12-07T08:49:57.196Z,100575.59
2022-12-07T08:55:02.547Z,100587.25
2022-12-07T09:00:08.355Z,100580.09
2022-12-07T09:05:16.298Z,100584.88
2022-12-07T09:10:21.906Z,100588.28
2022-12-07T09:15:25.340Z,100581.13
2022-12-07T09:20:28.911Z,100589.16
2022-12-07T09:25:33.725Z,100581.63
2022-12-07T09:30:59.588Z,100590.50
2022-12-07T09:36:00.732Z,100581.13
2022-12-07T09:41:08.447Z,100576.66
2022-12-07T09:46:16.359Z,100570.06
2022-12-07T09:51:24.071Z,100567.94
2022-12-07T09:56:31.572Z,100571.63
2022-12-07T10:01:35.634Z,100556.84
2022-12-07T10:06:39.064Z,100553.88
2022-12-07T10:12:04.275Z,100556.66
2022-12-07T10:17:36.534Z,100557.22
2022-12-07T10:22:40.116Z,100556.69
2022-12-07T10:27:44.881Z,100555.28
2022-12-07T10:32:48.283Z,100571.16
2022-12-07T10:37:52.771Z,100566.13
2022-12-07T10:43:06.254Z,100559.63
2022-12-07T10:48:14.352Z,100559.91
2022-12-07T10:53:30.440Z,100553.44
2022-12-07T10:58:43.336Z,100551.66
2022-12-07T11:03:55.925Z,100540.31
2022-12-07T11:09:06.524Z,100535.66
2022-12-07T11:14:19.263Z,100528.63
2022-12-07T11:19:52.235Z,100531.75
2022-12-07T11:25:00.111Z,100553.50
2022-12-07T11:30:13.182Z,100548.41
2022-12-07T11:35:24.804Z,100565.25
2022-12-07T11:40:30.323Z,100544.28
2022-12-07T11:45:36.261Z,100535.34
2022-12-07T11:50:43.853Z,100520.06
2022-12-07T11:55:52.526Z,100510.72
2022-12-07T12:01:07.057Z,100508.16
2022-12-07T12:06:10.411Z,100492.47
2022-12-07T12:11:27.326Z,100490.91
2022-12-07T12:16:50.423Z,100482.13
2022-12-07T12:21:58.574Z,100472.19
2022-12-07T12:27:05.578Z,100476.44
2022-12-07T12:32:16.543Z,100473.03
2022-12-07T12:37:42.623Z,100468.19
2022-12-07T12:42:48.026Z,100461.31
2022-12-07T12:48:00.216Z,100461.22
2022-12-07T12:53:08.360Z,100454.72
2022-12-07T12:58:32.448Z,100467.56
2022-12-07T13:03:37.314Z,100450.81
2022-12-07T13:08:42.757Z,100444.03
2022-12-07T13:13:46.174Z,100462.44
2022-12-07T13:18:50.987Z,100454.66
2022-12-07T13:23:57.393Z,100455.69
2022-12-07T13:29:12.092Z,100446.03
2022-12-07T13:34:33.966Z,100438.19
2022-12-07T13:39:37.567Z,100436.44
2022-12-07T13:44:42.768Z,100430.78
2022-12-07T13:49:53.967Z,100429.16
2022-12-07T13:54:59.749Z,100427.19
2022-12-07T14:00:03.939Z,100423.59
2022-12-07T14:05:11.944Z,100421.75
2022-12-07T14:10:26.450Z,100418.09
2022-12-07T14:15:31.667Z,100418.75
2022-12-07T14:20:38.249Z,100418.63
2022-12-07T14:25:52.022Z,100417.69
2022-12-07T14:30:55.540Z,100427.28
2022-12-07T14:36:00.397Z,100427.47
2022-12-07T14:41:18.356Z,100427.75
2022-12-07T14:46:21.843Z,100417.69
2022-12-07T14:56:51.775Z,100426.53
2022-12-07T15:01:55.294Z,100433.03
2022-12-07T15:07:01.597Z,100436.41
2022-12-07T15:12:05.318Z,100442.31
2022-12-07T15:17:14.672Z,100437.50
2022-12-07T15:22:24.043Z,100432.28
2022-12-07T15:27:27.682Z,100432.94
2022-12-07T15:32:31.225Z,100434.91
2022-12-07T15:37:36.240Z,100430.63
2022-12-07T15:42:39.730Z,100429.63
2022-12-07T15:48:25.774Z,100426.91
2022-12-07T15:53:10.212Z,100417.03
2022-12-07T15:58:13.662Z,100426.00
2022-12-07T16:03:17.175Z,100418.63
2022-12-07T16:08:22.199Z,100421.22
2022-12-07T16:13:25.806Z,100412.06
2022-12-07T16:18:29.272Z,100412.25
2022-12-07T16:23:34.211Z,100422.00
2022-12-07T16:28:37.790Z,100428.56
2022-12-07T16:33:42.821Z,100418.91
2022-12-07T16:38:52.109Z,100411.56
2022-12-07T16:43:55.929Z,100411.25
2022-12-07T16:48:59.409Z,100401.63
2022-12-07T16:54:04.312Z,100394.00
2022-12-07T16:59:12.444Z,100389.69
2022-12-07T17:04:16.346Z,100386.13
2022-12-07T17:09:21.776Z,100397.56
2022-12-07T17:14:43.185Z,100386.09
2022-12-07T17:19:47.165Z,100381.25
2022-12-07T17:24:52.031Z,100383.06
2022-12-07T17:29:55.530Z,100387.31
2022-12-07T17:34:59.126Z,100386.13
2022-12-07T17:40:04.421Z,100382.13
2022-12-07T17:45:09.765Z,100378.13
2022-12-07T17:50:13.572Z,100389.03
2022-12-07T17:55:18.772Z,100393.44
2022-12-07T18:00:22.454Z,100403.16
2022-12-07T18:05:25.944Z,100389.66
2022-12-07T18:10:30.871Z,100386.09
2022-12-07T18:15:34.399Z,100372.72
2022-12-07T18:20:37.897Z,100380.34
2022-12-07T18:25:48.589Z,100378.16
2022-12-07T18:31:14.742Z,100372.38
2022-12-07T18:36:17.272Z,100365.97
2022-12-07T18:41:22.159Z,100359.56
2022-12-07T18:46:25.717Z,100356.31
2022-12-07T18:51:32.295Z,100343.13
2022-12-07T18:56:37.995Z,100348.81
2022-12-07T19:01:42.727Z,100344.56
2022-12-07T19:06:47.656Z,100343.94
2022-12-07T19:11:52.852Z,100337.47
2022-12-07T19:16:58.257Z,100332.81
2022-12-07T19:22:01.832Z,100325.44
2022-12-07T19:27:07.227Z,100326.31
2022-12-07T19:32:11.398Z,100318.50
2022-12-07T19:37:14.996Z,100309.88
2022-12-07T19:42:20.259Z,100321.25
2022-12-07T19:47:23.648Z,100318.81
2022-12-07T19:52:29.975Z,100317.94
2022-12-07T19:57:36.896Z,100303.28
2022-12-07T20:02:40.358Z,100295.25
2022-12-07T20:07:43.839Z,100297.53
2022-12-07T20:13:06.367Z,100295.50
2022-12-07T20:18:09.793Z,100291.41
2022-12-07T20:23:13.166Z,100279.34
2022-12-07T20:28:17.889Z,100269.41
2022-12-07T20:33:21.613Z,100261.94
2022-12-07T20:38:26.117Z,100260.63
2022-12-07T20:43:30.936Z,100251.75
2022-12-07T20:48:34.512Z,100250.91
2022-12-07T20:53:38.005Z,100249.34
2022-12-07T20:58:42.803Z,100241.66
2022-12-07T21:03:46.227Z,100235.94
2022-12-07T21:08:50.837Z,100234.34
2022-12-07T21:13:55.729Z,100240.16
2022-12-07T21:19:02.457Z,100245.00
2022-12-07T21:24:08.094Z,100237.84
2022-12-07T21:29:12.908Z,100226.66
2022-12-07T21:34:16.304Z,100225.09
2022-12-07T21:39:19.732Z,100220.53
2022-12-07T21:44:24.496Z,100218.31
2022-12-07T21:49:27.924Z,100215.19
2022-12-07T21:54:31.297Z,100217.69
2022-12-07T21:59:36.172Z,100204.09
2022-12-07T22:04:39.594Z,100206.84
2022-12-07T22:09:43.232Z,100210.53
2022-12-07T22:15:05.992Z,100217.91
2022-12-07T22:20:09.901Z,100215.38
2022-12-07T22:25:14.008Z,100206.72
2022-12-07T22:30:19.004Z,100191.34
2022-12-07T22:35:23.073Z,100187.25
2022-12-07T22:40:26.542Z,100178.91
2022-12-07T22:45:31.264Z,100177.97
2022-12-07T22:50:35.002Z,100176.59
2022-12-07T22:55:39.990Z,100170.03
2022-12-07T23:00:44.929Z,100165.13
2022-12-07T23:05:49.949Z,100157.31
2022-12-07T23:10:53.573Z,100160.28
2022-12-07T23:15:58.398Z,100159.72
2022-12-07T23:21:01.897Z,100148.66
2022-12-07T23:26:06.162Z,100142.88
2022-12-07T23:31:14.840Z,100141.63
2022-12-07T23:36:19.994Z,100123.16
2022-12-07T23:41:24.980Z,100114.09
2022-12-07T23:46:31.542Z,100114.84
2022-12-07T23:51:35.184Z,100108.75
2022-12-07T23:56:38.578Z,100100.75
